createdAt,value
2019-02-27T00:00:16.151Z,97999.06
2019-02-27T00:01:27.637Z,98000.81
2019-02-27T00:02:34.793Z,97996.58
2019-02-27T00:03:43.019Z,97997.87
2019-02-27T00:04:50.255Z,97993.60
2019-02-27T00:05:57.491Z,97992.70
2019-02-27T00:07:04.646Z,97990.11
2019-02-27T00:08:11.820Z,97990.11
2019-02-27T00:09:18.969Z,97991.41
2019-02-27T00:10:26.297Z,97991.41
2019-02-27T00:11:33.452Z,97985.39
2019-02-27T00:12:40.608Z,97988.42
2019-02-27T00:13:47.947Z,97980.22
2019-02-27T00:14:55.114Z,97983.70
2019-02-27T00:16:02.331Z,97987.59
2019-02-27T00:17:09.490Z,97981.63
2019-02-27T00:18:16.629Z,97983.38
2019-02-27T00:19:23.865Z,97980.86
2019-02-27T00:20:31.010Z,97978.72
2019-02-27T00:21:38.162Z,97979.17
2019-02-27T00:22:45.321Z,97977.94
2019-02-27T00:23:56.666Z,97980.14
2019-02-27T00:25:04.030Z,97979.75
2019-02-27T00:26:11.350Z,97979.45
2019-02-27T00:27:18.510Z,97976.47
2019-02-27T00:28:25.669Z,97972.66
2019-02-27T00:29:32.912Z,97968.78
2019-02-27T00:30:40.070Z,97971.37
2019-02-27T00:31:47.227Z,97972.72
2019-02-27T00:32:54.386Z,97969.75
2019-02-27T00:34:01.559Z,97966.71
2019-02-27T00:35:08.714Z,97966.37
2019-02-27T00:36:15.864Z,97970.26
2019-02-27T00:37:23.044Z,97963.80
2019-02-27T00:38:30.190Z,97959.52
2019-02-27T00:39:37.408Z,97962.56
2019-02-27T00:40:44.585Z,97963.86
2019-02-27T00:41:51.747Z,97960.88
2019-02-27T00:42:58.939Z,97961.78
2019-02-27T00:44:06.094Z,97965.27
2019-02-27T00:45:13.450Z,97958.36
2019-02-27T00:46:20.627Z,97954.58
2019-02-27T00:47:27.773Z,97955.09
2019-02-27T00:48:34.926Z,97959.86
2019-02-27T00:49:43.056Z,97956.44
2019-02-27T00:50:50.106Z,97956.89
2019-02-27T00:51:57.283Z,97949.26
2019-02-27T00:53:04.702Z,97951.00
2019-02-27T00:54:12.840Z,97946.80
2019-02-27T00:55:19.977Z,97942.63
2019-02-27T00:56:27.127Z,97940.12
2019-02-27T00:57:34.274Z,97942.89
2019-02-27T00:58:41.420Z,97943.85
2019-02-27T00:59:48.623Z,97941.48
2019-02-27T01:00:55.777Z,97940.75
2019-02-27T01:02:02.929Z,97938.73
2019-02-27T01:03:10.248Z,97940.99
2019-02-27T01:04:17.415Z,97942.77
2019-02-27T01:05:24.590Z,97939.84
2019-02-27T01:06:31.864Z,97945.86
2019-02-27T01:07:39.024Z,97945.07
2019-02-27T01:08:46.180Z,97947.20
2019-02-27T01:09:54.401Z,97943.84
2019-02-27T01:11:01.586Z,97949.91
2019-02-27T01:12:09.816Z,97946.09
2019-02-27T01:13:16.971Z,97949.57
2019-02-27T01:14:24.146Z,97947.50
2019-02-27T01:15:31.502Z,97945.91
2019-02-27T01:16:38.670Z,97948.94
2019-02-27T01:17:45.815Z,97948.09
2019-02-27T01:18:52.985Z,97942.54
2019-02-27T01:20:00.294Z,97943.44
2019-02-27T01:21:07.435Z,97940.02
2019-02-27T01:22:14.610Z,97939.62
2019-02-27T01:23:21.765Z,97939.23
2019-02-27T01:24:28.919Z,97945.69
2019-02-27T01:25:36.077Z,97947.38
2019-02-27T01:26:43.400Z,97948.27
2019-02-27T01:27:50.560Z,97945.30
2019-02-27T01:28:57.707Z,97946.64
2019-02-27T01:30:05.704Z,97942.37
2019-02-27T01:31:12.916Z,97942.83
2019-02-27T01:32:20.075Z,97939.86
2019-02-27T01:33:27.217Z,97940.84
2019-02-27T01:34:34.368Z,97940.45
2019-02-27T01:35:41.625Z,97943.03
2019-02-27T01:36:48.776Z,97935.80
2019-02-27T01:37:55.939Z,97941.80
2019-02-27T01:39:03.783Z,97937.98
2019-02-27T01:40:17.219Z,97929.84
2019-02-27T01:41:24.570Z,97938.94
2019-02-27T01:42:32.775Z,97936.41
2019-02-27T01:43:40.733Z,97937.25
2019-02-27T01:44:47.940Z,97938.60
2019-02-27T01:45:55.110Z,97938.21
2019-02-27T01:47:03.016Z,97934.34
2019-02-27T01:48:09.942Z,97930.55
2019-02-27T01:49:17.082Z,97929.27
2019-02-27T01:50:38.387Z,97926.29
2019-02-27T01:51:45.551Z,97922.87
2019-02-27T01:52:52.709Z,97921.75
2019-02-27T01:53:59.851Z,97916.19
2019-02-27T01:55:07.189Z,97915.74
2019-02-27T01:56:14.397Z,97914.91
2019-02-27T01:57:21.533Z,97912.32
2019-02-27T01:58:28.701Z,97907.27
2019-02-27T01:59:35.779Z,97909.85
2019-02-27T02:00:43.032Z,97904.75
2019-02-27T02:01:50.180Z,97906.13
2019-02-27T02:02:57.452Z,97904.45
2019-02-27T02:04:05.806Z,97903.60
2019-02-27T02:05:13.055Z,97897.66
2019-02-27T02:06:20.271Z,97896.87
2019-02-27T02:07:27.357Z,97899.95
2019-02-27T02:08:34.511Z,97895.70
2019-02-27T02:09:41.901Z,97899.56
2019-02-27T02:10:49.223Z,97894.02
2019-02-27T02:11:56.483Z,97896.59
2019-02-27T02:13:17.442Z,97891.48
2019-02-27T02:15:10.407Z,97888.16
2019-02-27T02:17:08.100Z,97886.08
2019-02-27T02:19:14.086Z,97881.40
2019-02-27T02:21:00.917Z,97881.87
2019-02-27T02:22:53.578Z,97887.36
2019-02-27T02:25:03.950Z,97885.42
2019-02-27T02:27:11.989Z,97886.48
2019-02-27T02:28:48.315Z,97876.83
2019-02-27T02:31:05.022Z,97874.02
2019-02-27T02:32:29.150Z,97876.39
2019-02-27T02:34:56.645Z,97874.27
2019-02-27T02:36:26.347Z,97873.97
2019-02-27T02:38:30.517Z,97873.47
2019-02-27T02:40:30.873Z,97873.02
2019-02-27T02:42:07.897Z,97867.52
2019-02-27T02:43:59.731Z,97868.31
2019-02-27T02:45:40.696Z,97871.28
2019-02-27T02:47:55.372Z,97873.86
2019-02-27T02:49:28.847Z,97871.89
2019-02-27T02:51:32.231Z,97866.63
2019-02-27T02:53:50.171Z,97856.81
2019-02-27T02:55:32.378Z,97864.15
2019-02-27T02:57:39.827Z,97860.56
2019-02-27T02:59:49.213Z,97857.59
2019-02-27T03:01:31.004Z,97859.37
2019-02-27T03:03:21.886Z,97864.28
2019-02-27T03:05:38.362Z,97862.55
2019-02-27T03:07:50.102Z,97858.34
2019-02-27T03:09:43.919Z,97861.36
2019-02-27T03:11:24.461Z,97851.93
2019-02-27T03:12:58.084Z,97850.03
2019-02-27T03:14:45.379Z,97850.03
2019-02-27T03:16:41.382Z,97854.19
2019-02-27T03:19:09.311Z,97847.75
2019-02-27T03:21:10.086Z,97847.20
2019-02-27T03:22:54.431Z,97851.52
2019-02-27T03:24:49.947Z,97850.81
2019-02-27T03:27:06.220Z,97851.08
2019-02-27T03:29:27.566Z,97850.98
2019-02-27T03:31:22.046Z,97844.37
2019-02-27T03:32:43.843Z,97845.50
2019-02-27T03:34:48.255Z,97844.66
2019-02-27T03:36:52.893Z,97841.55
2019-02-27T03:39:07.990Z,97844.38
2019-02-27T03:41:23.629Z,97837.86
2019-02-27T03:43:16.572Z,97841.41
2019-02-27T03:45:12.835Z,97846.66
2019-02-27T03:47:16.603Z,97844.08
2019-02-27T03:49:29.615Z,97853.03
2019-02-27T03:51:40.585Z,97846.56
2019-02-27T03:53:48.582Z,97852.55
2019-02-27T03:55:51.456Z,97849.62
2019-02-27T03:57:31.608Z,97849.44
2019-02-27T03:59:21.404Z,97853.97
2019-02-27T04:01:03.179Z,97853.53
2019-02-27T04:03:23.563Z,97853.08
2019-02-27T04:05:21.731Z,97854.71
2019-02-27T04:07:07.711Z,97841.32
2019-02-27T04:08:59.982Z,97842.78
2019-02-27T04:10:07.447Z,97844.47
2019-02-27T04:11:14.631Z,97846.31
2019-02-27T04:12:21.781Z,97840.17
2019-02-27T04:13:28.927Z,97835.30
2019-02-27T04:14:40.279Z,97833.80
2019-02-27T04:15:45.470Z,97834.49
2019-02-27T04:16:52.636Z,97835.16
2019-02-27T04:17:57.403Z,97829.44
2019-02-27T04:19:05.139Z,97828.46
2019-02-27T04:20:15.530Z,97835.16
2019-02-27T04:21:24.996Z,97832.90
2019-02-27T04:22:30.267Z,97829.39
2019-02-27T04:23:37.408Z,97830.59
2019-02-27T04:24:44.550Z,97830.91
2019-02-27T04:25:51.702Z,97826.16
2019-02-27T04:26:58.863Z,97832.94
2019-02-27T04:28:09.184Z,97830.77
2019-02-27T04:29:16.347Z,97829.43
2019-02-27T04:30:23.501Z,97833.23
2019-02-27T04:31:30.801Z,97830.62
2019-02-27T04:32:38.078Z,97829.73
2019-02-27T04:33:45.227Z,97830.13
2019-02-27T04:34:52.394Z,97825.42
2019-02-27T04:35:59.474Z,97823.30
2019-02-27T04:37:06.626Z,97819.04
2019-02-27T04:38:13.716Z,97825.08
2019-02-27T04:39:20.881Z,97823.84
2019-02-27T04:40:28.042Z,97829.83
2019-02-27T04:41:35.284Z,97825.97
2019-02-27T04:42:42.432Z,97828.54
2019-02-27T04:43:49.580Z,97826.41
2019-02-27T04:44:56.756Z,97831.95
2019-02-27T04:46:03.909Z,97829.83
2019-02-27T04:47:11.059Z,97824.63
2019-02-27T04:48:18.233Z,97823.34
2019-02-27T04:49:26.488Z,97831.02
2019-02-27T04:50:33.663Z,97825.47
2019-02-27T04:51:40.818Z,97825.08
2019-02-27T04:52:47.971Z,97822.50
2019-02-27T04:53:56.117Z,97823.39
2019-02-27T04:55:03.185Z,97818.64
2019-02-27T04:56:10.359Z,97824.68
2019-02-27T04:57:17.509Z,97820.82
2019-02-27T04:58:24.672Z,97816.56
2019-02-27T04:59:31.815Z,97817.01
2019-02-27T05:00:38.962Z,97812.75
2019-02-27T05:01:46.187Z,97815.32
2019-02-27T05:02:54.001Z,97807.61
2019-02-27T05:04:02.144Z,97811.02
2019-02-27T05:05:09.384Z,97807.20
2019-02-27T05:06:16.470Z,97812.80
2019-02-27T05:07:23.619Z,97812.84
2019-02-27T05:08:30.796Z,97809.83
2019-02-27T05:09:37.954Z,97811.16
2019-02-27T05:10:45.127Z,97812.89
2019-02-27T05:11:52.294Z,97816.31
2019-02-27T05:12:59.452Z,97814.26
2019-02-27T05:14:07.093Z,97820.69
2019-02-27T05:15:14.832Z,97827.48
2019-02-27T05:16:22.577Z,97822.02
2019-02-27T05:17:29.747Z,97823.76
2019-02-27T05:18:36.908Z,97822.96
2019-02-27T05:19:44.067Z,97826.86
2019-02-27T05:20:51.235Z,97825.62
2019-02-27T05:21:58.377Z,97825.23
2019-02-27T05:23:05.522Z,97822.26
2019-02-27T05:24:12.677Z,97824.44
2019-02-27T05:25:19.827Z,97826.16
2019-02-27T05:26:27.800Z,97828.34
2019-02-27T05:27:35.066Z,97823.67
2019-02-27T05:28:42.214Z,97825.00
2019-02-27T05:29:49.389Z,97826.69
2019-02-27T05:30:56.554Z,97822.43
2019-02-27T05:32:03.723Z,97816.84
2019-02-27T05:33:10.876Z,97821.14
2019-02-27T05:34:18.023Z,97817.33
2019-02-27T05:35:25.175Z,97816.05
2019-02-27T05:36:32.466Z,97813.03
2019-02-27T05:37:39.681Z,97816.05
2019-02-27T05:38:46.840Z,97817.33
2019-02-27T05:39:53.990Z,97817.33
2019-02-27T05:41:01.151Z,97819.06
2019-02-27T05:42:08.300Z,97823.36
2019-02-27T05:43:15.490Z,97818.66
2019-02-27T05:44:22.644Z,97825.09
2019-02-27T05:45:31.229Z,97822.52
2019-02-27T05:46:39.123Z,97824.25
2019-02-27T05:47:46.213Z,97828.11
2019-02-27T05:48:53.926Z,97822.17
2019-02-27T05:50:01.535Z,97820.48
2019-02-27T05:51:10.723Z,97820.93
2019-02-27T05:52:18.008Z,97823.50
2019-02-27T05:53:25.162Z,97821.81
2019-02-27T05:54:32.926Z,97830.42
2019-02-27T05:55:40.064Z,97828.69
2019-02-27T05:56:49.641Z,97835.56
2019-02-27T05:57:56.066Z,97833.88
2019-02-27T05:59:04.199Z,97834.33
2019-02-27T06:00:15.561Z,97832.67
2019-02-27T06:01:22.707Z,97830.10
2019-02-27T06:02:29.862Z,97838.27
2019-02-27T06:03:36.998Z,97836.13
2019-02-27T06:04:45.160Z,97838.30
2019-02-27T06:05:52.328Z,97833.61
2019-02-27T06:06:59.470Z,97837.02
2019-02-27T06:08:06.619Z,97836.17
2019-02-27T06:09:13.762Z,97835.29
2019-02-27T06:10:22.830Z,97837.47
2019-02-27T06:11:32.966Z,97837.91
2019-02-27T06:12:40.755Z,97837.06
2019-02-27T06:13:48.232Z,97839.68
2019-02-27T06:14:55.588Z,97839.73
2019-02-27T06:16:03.835Z,97838.94
2019-02-27T06:17:12.856Z,97841.52
2019-02-27T06:18:23.358Z,97839.91
2019-02-27T06:19:33.319Z,97837.82
2019-02-27T06:20:41.590Z,97834.45
2019-02-27T06:21:47.246Z,97842.61
2019-02-27T06:22:54.423Z,97840.52
2019-02-27T06:24:01.577Z,97836.27
2019-02-27T06:25:11.471Z,97835.38
2019-02-27T06:26:18.623Z,97840.56
2019-02-27T06:27:25.789Z,97841.89
2019-02-27T06:28:32.951Z,97835.07
2019-02-27T06:29:40.121Z,97838.09
2019-02-27T06:30:47.321Z,97835.14
2019-02-27T06:31:54.472Z,97838.61
2019-02-27T06:33:01.621Z,97835.67
2019-02-27T06:34:09.861Z,97836.96
2019-02-27T06:35:17.030Z,97840.86
2019-02-27T06:36:24.179Z,97847.77
2019-02-27T06:37:31.336Z,97839.66
2019-02-27T06:38:38.487Z,97837.53
2019-02-27T06:39:45.644Z,97846.53
2019-02-27T06:40:52.794Z,97841.83
2019-02-27T06:41:59.938Z,97838.86
2019-02-27T06:43:07.084Z,97836.34
2019-02-27T06:44:14.163Z,97841.92
2019-02-27T06:45:21.325Z,97838.54
2019-02-27T06:46:28.472Z,97835.57
2019-02-27T06:47:36.227Z,97835.13
2019-02-27T06:48:44.089Z,97839.34
2019-02-27T06:49:51.872Z,97836.41
2019-02-27T06:51:00.979Z,97833.84
2019-02-27T06:52:09.881Z,97832.55
2019-02-27T06:53:17.081Z,97827.86
2019-02-27T06:54:24.225Z,97823.60
2019-02-27T06:55:31.378Z,97828.30
2019-02-27T06:56:38.445Z,97824.45
2019-02-27T06:57:45.701Z,97821.87
2019-02-27T06:58:52.834Z,97823.12
2019-02-27T07:00:02.155Z,97829.06
2019-02-27T07:01:13.106Z,97824.84
2019-02-27T07:02:21.545Z,97823.12
2019-02-27T07:03:29.862Z,97824.84
2019-02-27T07:04:39.640Z,97821.44
2019-02-27T07:05:48.133Z,97820.15
2019-02-27T07:06:55.489Z,97823.56
2019-02-27T07:08:05.218Z,97828.26
2019-02-27T07:09:12.228Z,97822.64
2019-02-27T07:10:19.922Z,97821.76
2019-02-27T07:11:27.815Z,97824.69
2019-02-27T07:12:34.964Z,97822.06
2019-02-27T07:13:42.131Z,97822.02
2019-02-27T07:14:49.279Z,97818.12
2019-02-27T07:15:56.334Z,97827.92
2019-02-27T07:17:03.505Z,97819.72
2019-02-27T07:18:11.929Z,97821.77
2019-02-27T07:19:19.143Z,97821.73
2019-02-27T07:20:26.288Z,97815.26
2019-02-27T07:21:33.645Z,97817.78
2019-02-27T07:22:45.524Z,97823.28
2019-02-27T07:23:51.391Z,97816.85
2019-02-27T07:24:58.474Z,97817.65
2019-02-27T07:26:05.621Z,97814.19
2019-02-27T07:27:12.763Z,97821.39
2019-02-27T07:28:19.922Z,97819.61
2019-02-27T07:29:27.989Z,97816.58
2019-02-27T07:30:35.225Z,97817.82
2019-02-27T07:31:42.384Z,97822.52
2019-02-27T07:32:49.635Z,97822.92
2019-02-27T07:33:56.792Z,97825.00
2019-02-27T07:35:04.112Z,97817.29
2019-02-27T07:36:11.428Z,97821.94
2019-02-27T07:37:18.595Z,97824.44
2019-02-27T07:38:25.805Z,97817.12
2019-02-27T07:39:33.405Z,97820.93
2019-02-27T07:40:42.941Z,97821.73
2019-02-27T07:41:49.501Z,97825.54
2019-02-27T07:42:56.569Z,97822.97
2019-02-27T07:44:03.723Z,97825.09
2019-02-27T07:45:14.170Z,97822.48
2019-02-27T07:46:22.404Z,97824.56
2019-02-27T07:47:30.278Z,97815.95
2019-02-27T07:48:37.716Z,97815.48
2019-02-27T07:49:44.903Z,97820.13
2019-02-27T07:50:52.055Z,97821.81
2019-02-27T07:51:59.190Z,97817.47
2019-02-27T07:53:06.720Z,97819.99
2019-02-27T07:54:13.894Z,97823.36
2019-02-27T07:55:22.939Z,97822.79
2019-02-27T07:56:29.913Z,97824.87
2019-02-27T07:57:37.068Z,97826.50
2019-02-27T07:58:44.229Z,97832.00
2019-02-27T07:59:51.402Z,97825.92
2019-02-27T08:00:58.590Z,97828.84
2019-02-27T08:02:05.743Z,97832.12
2019-02-27T08:03:13.156Z,97829.45
2019-02-27T08:04:22.859Z,97830.60
2019-02-27T08:05:29.244Z,97829.19
2019-02-27T08:06:37.820Z,97829.04
2019-02-27T08:07:48.709Z,97834.04
2019-02-27T08:08:56.926Z,97833.07
2019-02-27T08:10:04.621Z,97838.56
2019-02-27T08:11:14.144Z,97841.04
2019-02-27T08:12:21.415Z,97838.41
2019-02-27T08:13:30.256Z,97840.89
2019-02-27T08:14:37.876Z,97837.73
2019-02-27T08:15:45.240Z,97834.62
2019-02-27T08:16:56.945Z,97832.78
2019-02-27T08:18:01.274Z,97832.16
2019-02-27T08:19:08.903Z,97826.91
2019-02-27T08:20:20.200Z,97827.59
2019-02-27T08:21:26.388Z,97824.91
2019-02-27T08:22:33.541Z,97826.51
2019-02-27T08:23:40.629Z,97832.45
2019-02-27T08:24:47.773Z,97834.03
2019-02-27T08:25:54.930Z,97829.61
2019-02-27T08:27:02.256Z,97827.74
2019-02-27T08:28:09.420Z,97832.34
2019-02-27T08:29:16.582Z,97830.05
2019-02-27T08:30:23.754Z,97827.28
2019-02-27T08:31:32.095Z,97827.13
2019-02-27T08:32:39.343Z,97823.55
2019-02-27T08:33:46.437Z,97822.52
2019-02-27T08:34:53.586Z,97821.90
2019-02-27T08:36:00.748Z,97820.48
2019-02-27T08:37:07.907Z,97824.15
2019-02-27T08:38:15.063Z,97825.27
2019-02-27T08:39:22.077Z,97821.69
2019-02-27T08:40:29.223Z,97822.78
2019-02-27T08:41:36.386Z,97822.16
2019-02-27T08:42:43.631Z,97818.09
2019-02-27T08:43:50.782Z,97816.62
2019-02-27T08:44:57.935Z,97816.85
2019-02-27T08:46:05.096Z,97814.06
2019-02-27T08:47:12.248Z,97815.58
2019-02-27T08:48:19.394Z,97816.30
2019-02-27T08:49:26.620Z,97811.33
2019-02-27T08:50:34.086Z,97811.66
2019-02-27T08:51:42.160Z,97813.61
2019-02-27T08:52:51.591Z,97814.69
2019-02-27T08:53:59.937Z,97813.28
2019-02-27T08:55:07.446Z,97813.11
2019-02-27T08:56:14.598Z,97812.05
2019-02-27T08:57:21.680Z,97805.87
2019-02-27T08:58:29.746Z,97806.88
2019-02-27T08:59:39.870Z,97807.60
2019-02-27T09:00:47.335Z,97807.81
2019-02-27T09:01:56.367Z,97803.78
2019-02-27T09:03:03.834Z,97801.91
2019-02-27T09:04:12.266Z,97803.53
2019-02-27T09:05:20.761Z,97803.02
2019-02-27T09:06:28.290Z,97795.98
2019-02-27T09:07:36.461Z,97801.77
2019-02-27T09:08:44.398Z,97793.38
2019-02-27T09:09:52.337Z,97794.45
2019-02-27T09:11:05.532Z,97794.65
2019-02-27T09:12:13.216Z,97790.23
2019-02-27T09:13:17.330Z,97790.33
2019-02-27T09:14:24.502Z,97794.01
2019-02-27T09:15:31.666Z,97787.19
2019-02-27T09:16:38.817Z,97780.47
2019-02-27T09:17:45.974Z,97779.27
2019-02-27T09:18:53.131Z,97781.97
2019-02-27T09:20:00.289Z,97776.05
2019-02-27T09:21:07.443Z,97779.66
2019-02-27T09:22:15.129Z,97775.47
2019-02-27T09:23:22.266Z,97772.99
2019-02-27T09:24:29.431Z,97772.69
2019-02-27T09:25:36.612Z,97767.23
2019-02-27T09:26:43.769Z,97766.92
2019-02-27T09:27:50.932Z,97764.52
2019-02-27T09:28:58.081Z,97761.61
2019-02-27T09:30:06.330Z,97757.45
2019-02-27T09:31:13.506Z,97757.12
2019-02-27T09:32:20.663Z,97759.89
2019-02-27T09:33:27.815Z,97761.24
2019-02-27T09:34:34.970Z,97752.31
2019-02-27T09:35:42.155Z,97752.44
2019-02-27T09:36:50.942Z,97757.70
2019-02-27T09:37:58.182Z,97748.31
2019-02-27T09:39:06.782Z,97750.53
2019-02-27T09:40:17.851Z,97751.95
2019-02-27T09:41:25.020Z,97749.45
2019-02-27T09:42:32.172Z,97752.08
2019-02-27T09:43:39.355Z,97749.19
2019-02-27T09:44:46.582Z,97750.07
2019-02-27T09:45:54.157Z,97750.57
2019-02-27T09:47:01.317Z,97746.30
2019-02-27T09:48:11.685Z,97747.25
2019-02-27T09:49:18.854Z,97740.00
2019-02-27T09:50:38.315Z,97741.78
2019-02-27T09:51:45.398Z,97740.47
2019-02-27T09:52:52.554Z,97739.73
2019-02-27T09:53:59.723Z,97742.80
2019-02-27T09:55:07.320Z,97742.83
2019-02-27T09:56:14.498Z,97740.26
2019-02-27T09:57:21.649Z,97742.44
2019-02-27T09:58:28.821Z,97731.70
2019-02-27T09:59:35.912Z,97736.94
2019-02-27T10:00:52.193Z,97732.31
2019-02-27T10:01:59.359Z,97731.89
2019-02-27T10:03:06.875Z,97738.94
2019-02-27T10:04:14.015Z,97742.50
2019-02-27T10:05:21.159Z,97739.53
2019-02-27T10:06:28.325Z,97735.67
2019-02-27T10:07:35.482Z,97732.24
2019-02-27T10:08:42.731Z,97736.64
2019-02-27T10:09:49.908Z,97743.13
2019-02-27T10:10:57.087Z,97739.73
2019-02-27T10:12:04.239Z,97741.52
2019-02-27T10:13:11.404Z,97735.05
2019-02-27T10:14:18.469Z,97732.90
2019-02-27T10:15:25.983Z,97732.46
2019-02-27T10:16:34.771Z,97731.15
2019-02-27T10:17:43.708Z,97733.73
2019-02-27T10:18:54.799Z,97721.59
2019-02-27T10:20:02.484Z,97728.91
2019-02-27T10:21:12.115Z,97718.89
2019-02-27T10:22:20.320Z,97716.26
2019-02-27T10:23:30.447Z,97718.83
2019-02-27T10:24:37.565Z,97714.47
2019-02-27T10:25:44.786Z,97715.27
2019-02-27T10:26:53.555Z,97712.20
2019-02-27T10:28:04.377Z,97710.44
2019-02-27T10:29:10.964Z,97706.86
2019-02-27T10:30:19.338Z,97703.78
2019-02-27T10:31:26.993Z,97704.58
2019-02-27T10:32:36.403Z,97704.10
2019-02-27T10:33:43.652Z,97700.05
2019-02-27T10:34:53.498Z,97697.77
2019-02-27T10:36:03.336Z,97695.14
2019-02-27T10:37:12.912Z,97692.02
2019-02-27T10:38:17.514Z,97690.21
2019-02-27T10:39:24.740Z,97688.85
2019-02-27T10:40:31.897Z,97688.79
2019-02-27T10:41:39.060Z,97686.08
2019-02-27T10:42:46.291Z,97689.36
2019-02-27T10:43:53.934Z,97676.14
2019-02-27T10:45:02.326Z,97675.17
2019-02-27T10:46:10.851Z,97676.77
2019-02-27T10:47:18.001Z,97677.19
2019-02-27T10:48:25.343Z,97679.34
2019-02-27T10:49:32.532Z,97676.80
2019-02-27T10:50:39.693Z,97674.20
2019-02-27T10:51:48.718Z,97673.32
2019-02-27T10:52:55.874Z,97673.34
2019-02-27T10:54:05.308Z,97673.38
2019-02-27T10:55:14.177Z,97666.05
2019-02-27T10:56:24.299Z,97662.53
2019-02-27T10:57:32.221Z,97658.20
2019-02-27T10:58:39.636Z,97653.48
2019-02-27T10:59:46.952Z,97654.83
2019-02-27T11:00:54.138Z,97649.25
2019-02-27T11:02:01.459Z,97652.84
2019-02-27T11:03:08.678Z,97647.73
2019-02-27T11:04:15.829Z,97641.72
2019-02-27T11:05:23.357Z,97646.14
2019-02-27T11:06:34.063Z,97640.55
2019-02-27T11:07:39.653Z,97640.95
2019-02-27T11:08:46.813Z,97635.14
2019-02-27T11:09:53.974Z,97640.75
2019-02-27T11:11:01.252Z,97632.44
2019-02-27T11:12:08.710Z,97626.77
2019-02-27T11:13:15.971Z,97629.25
2019-02-27T11:14:23.464Z,97629.78
2019-02-27T11:15:30.644Z,97628.47
2019-02-27T11:16:37.937Z,97625.28
2019-02-27T11:17:45.204Z,97621.10
2019-02-27T11:18:53.449Z,97628.96
2019-02-27T11:20:00.675Z,97629.92
2019-02-27T11:21:08.192Z,97625.74
2019-02-27T11:22:15.442Z,97627.18
2019-02-27T11:23:22.613Z,97619.46
2019-02-27T11:24:29.766Z,97619.08
2019-02-27T11:25:37.898Z,97616.13
2019-02-27T11:26:45.232Z,97613.52
2019-02-27T11:27:52.476Z,97612.53
2019-02-27T11:28:59.706Z,97605.05
2019-02-27T11:30:09.500Z,97607.87
2019-02-27T11:31:16.845Z,97602.86
2019-02-27T11:32:24.103Z,97596.46
2019-02-27T11:33:33.428Z,97597.97
2019-02-27T11:34:41.164Z,97599.60
2019-02-27T11:35:49.137Z,97591.73
2019-02-27T11:36:57.740Z,97583.84
2019-02-27T11:38:05.543Z,97587.77
2019-02-27T11:39:12.687Z,97588.23
2019-02-27T11:40:22.322Z,97587.70
2019-02-27T11:41:29.418Z,97587.81
2019-02-27T11:42:36.568Z,97580.07
2019-02-27T11:43:43.735Z,97582.77
2019-02-27T11:44:50.895Z,97578.94
2019-02-27T11:45:58.665Z,97577.11
2019-02-27T11:47:05.910Z,97577.47
2019-02-27T11:48:13.072Z,97573.01
2019-02-27T11:49:20.243Z,97572.51
2019-02-27T11:51:32.938Z,97577.17
2019-02-27T11:52:48.605Z,97568.77
2019-02-27T11:53:49.279Z,97570.72
2019-02-27T11:54:57.032Z,97564.61
2019-02-27T11:56:04.195Z,97571.00
2019-02-27T11:57:11.379Z,97566.17
2019-02-27T11:58:18.608Z,97565.31
2019-02-27T11:59:25.792Z,97565.02
2019-02-27T12:00:33.205Z,97562.01
2019-02-27T12:01:40.389Z,97565.20
2019-02-27T12:02:47.740Z,97563.02
2019-02-27T12:03:54.893Z,97558.83
2019-02-27T12:05:02.041Z,97559.88
2019-02-27T12:06:09.214Z,97559.62
2019-02-27T12:07:17.425Z,97556.70
2019-02-27T12:08:26.799Z,97555.47
2019-02-27T12:09:35.129Z,97548.03
2019-02-27T12:10:43.166Z,97546.64
2019-02-27T12:11:51.349Z,97550.66
2019-02-27T12:13:00.837Z,97543.70
2019-02-27T12:14:08.990Z,97540.17
2019-02-27T12:15:17.483Z,97539.28
2019-02-27T12:16:24.647Z,97540.16
2019-02-27T12:17:31.872Z,97534.38
2019-02-27T12:18:39.019Z,97531.21
2019-02-27T12:19:46.180Z,97530.64
2019-02-27T12:20:54.118Z,97525.36
2019-02-27T12:22:01.266Z,97522.64
2019-02-27T12:23:10.126Z,97524.86
2019-02-27T12:24:18.998Z,97525.59
2019-02-27T12:25:29.014Z,97523.73
2019-02-27T12:26:37.515Z,97524.33
2019-02-27T12:27:49.112Z,97521.15
2019-02-27T12:28:53.000Z,97517.59
2019-02-27T12:30:02.984Z,97512.12
2019-02-27T12:31:12.292Z,97509.25
2019-02-27T12:32:21.948Z,97502.95
2019-02-27T12:33:29.367Z,97502.59
2019-02-27T12:34:37.809Z,97499.70
2019-02-27T12:35:45.209Z,97492.08
2019-02-27T12:36:55.512Z,97495.25
2019-02-27T12:38:07.225Z,97492.66
2019-02-27T12:39:15.147Z,97487.73
2019-02-27T12:40:24.960Z,97484.27
2019-02-27T12:41:32.539Z,97482.12
2019-02-27T12:42:42.488Z,97491.82
2019-02-27T12:43:52.214Z,97489.36
2019-02-27T12:44:57.784Z,97488.19
2019-02-27T12:46:04.954Z,97487.02
2019-02-27T12:47:12.102Z,97484.88
2019-02-27T12:48:19.600Z,97484.91
2019-02-27T12:49:26.751Z,97483.64
2019-02-27T12:50:34.124Z,97481.76
2019-02-27T12:51:41.302Z,97478.52
2019-02-27T12:52:48.693Z,97482.72
2019-02-27T12:53:56.899Z,97478.16
2019-02-27T12:55:04.437Z,97474.27
2019-02-27T12:56:11.590Z,97469.37
2019-02-27T12:57:18.744Z,97471.37
2019-02-27T12:58:25.935Z,97467.61
2019-02-27T12:59:33.650Z,97468.45
2019-02-27T13:00:42.572Z,97465.81
2019-02-27T13:01:51.637Z,97476.00
2019-02-27T13:02:59.230Z,97470.87
2019-02-27T13:04:06.516Z,97468.88
2019-02-27T13:05:15.066Z,97464.10
2019-02-27T13:06:22.221Z,97458.34
2019-02-27T13:07:29.379Z,97450.64
2019-02-27T13:08:36.550Z,97459.08
2019-02-27T13:09:43.719Z,97456.53
2019-02-27T13:10:50.875Z,97462.16
2019-02-27T13:11:58.049Z,97460.74
2019-02-27T13:13:05.229Z,97458.31
2019-02-27T13:14:12.421Z,97462.02
2019-02-27T13:15:22.149Z,97455.30
2019-02-27T13:16:29.312Z,97455.53
2019-02-27T13:17:36.481Z,97451.30
2019-02-27T13:18:43.669Z,97450.51
2019-02-27T13:19:50.846Z,97443.13
2019-02-27T13:20:58.021Z,97445.28
2019-02-27T13:22:05.187Z,97443.18
2019-02-27T13:23:12.362Z,97441.71
2019-02-27T13:24:19.519Z,97439.41
2019-02-27T13:25:26.797Z,97442.20
2019-02-27T13:26:35.415Z,97440.88
2019-02-27T13:27:43.277Z,97436.44
2019-02-27T13:28:51.172Z,97439.91
2019-02-27T13:30:08.378Z,97436.62
2019-02-27T13:31:07.214Z,97436.78
2019-02-27T13:32:14.378Z,97434.00
2019-02-27T13:33:21.539Z,97431.36
2019-02-27T13:34:28.703Z,97429.09
2019-02-27T13:35:35.860Z,97428.45
2019-02-27T13:36:43.029Z,97426.00
2019-02-27T13:37:50.455Z,97428.00
2019-02-27T13:38:59.330Z,97422.23
2019-02-27T13:40:10.849Z,97422.58
2019-02-27T13:41:18.027Z,97425.86
2019-02-27T13:42:25.197Z,97424.34
2019-02-27T13:43:32.345Z,97421.38
2019-02-27T13:44:39.515Z,97419.41
2019-02-27T13:45:47.696Z,97419.11
2019-02-27T13:46:57.014Z,97419.60
2019-02-27T13:48:06.016Z,97425.73
2019-02-27T13:49:13.984Z,97419.03
2019-02-27T13:50:23.434Z,97423.32
2019-02-27T13:51:30.913Z,97419.39
2019-02-27T13:52:38.079Z,97419.23
2019-02-27T13:53:45.249Z,97414.48
2019-02-27T13:54:52.338Z,97412.21
2019-02-27T13:55:59.500Z,97404.63
2019-02-27T13:57:06.665Z,97412.91
2019-02-27T13:58:13.855Z,97415.73
2019-02-27T13:59:20.930Z,97418.03
2019-02-27T14:00:30.043Z,97411.44
2019-02-27T14:01:37.190Z,97410.45
2019-02-27T14:02:44.359Z,97412.75
2019-02-27T14:03:51.573Z,97412.44
2019-02-27T14:05:00.638Z,97413.48